Time;durP1;ratioP1;P1;durP2;ratioP2;P2;SDS_P1;SDS_P2;PMS_P1;PMS_P2;Temp;Humidity;BMP_temperature;BMP_pressure;BME280_temperature;BME280_humidity;BME280_pressure;Samples;Min_cycle;Max_cycle;Signal;HPM_P1;HPM_P2
2022/09/01 00:02:07;;;;;;;3.10;2.30;;;18.00;99.90;;;;;;5017604;28;20711;-68
2022/09/01 00:04:37;;;;;;;2.83;2.37;;;17.90;99.90;;;;;;5019633;28;20648;-67
2022/09/01 00:07:07;;;;;;;2.50;2.30;;;17.90;99.90;;;;;;5020681;28;20213;-68
2022/09/01 00:09:34;;;;;;;3.57;2.17;;;17.80;99.90;;;;;;5014316;28;20384;-68
2022/09/01 00:12:03;;;;;;;3.63;2.27;;;17.80;99.90;;;;;;5021546;28;20222;-68
2022/09/01 00:14:34;;;;;;;2.47;2.17;;;17.70;99.90;;;;;;5025035;28;20571;-68
2022/09/01 00:17:09;;;;;;;3.70;2.30;;;17.60;99.90;;;;;;5015482;28;20219;-68
2022/09/01 00:19:36;;;;;;;4.80;2.60;;;17.50;99.90;;;;;;5020758;28;20195;-68
2022/09/01 00:22:03;;;;;;;2.37;2.13;;;17.40;99.90;;;;;;5015027;28;20223;-68
2022/09/01 00:24:30;;;;;;;3.23;2.27;;;17.20;99.90;;;;;;5013824;28;20376;-68
2022/09/01 00:26:57;;;;;;;3.77;2.50;;;17.10;99.90;;;;;;5015413;28;20203;-68
2022/09/01 00:29:24;;;;;;;3.17;2.70;;;16.90;99.90;;;;;;5013922;28;20215;-68
2022/09/01 00:31:51;;;;;;;2.80;2.30;;;16.90;99.90;;;;;;5013832;28;20719;-68
2022/09/01 00:34:18;;;;;;;2.63;2.43;;;16.80;99.90;;;;;;5016921;28;20203;-68
2022/09/01 00:36:46;;;;;;;4.83;2.40;;;16.80;99.90;;;;;;5020749;28;20222;-68
2022/09/01 00:39:14;;;;;;;4.63;2.47;;;16.70;99.90;;;;;;5015795;28;20196;-68
2022/09/01 00:41:43;;;;;;;3.00;2.70;;;16.70;99.90;;;;;;5019002;28;20207;-67
2022/09/01 00:44:17;;;;;;;4.03;2.67;;;16.70;99.90;;;;;;5015548;28;20206;-68
2022/09/01 00:46:50;;;;;;;3.43;2.47;;;16.60;99.90;;;;;;5017584;28;20199;-68
2022/09/01 00:49:25;;;;;;;3.87;2.43;;;16.70;99.90;;;;;;5017705;28;20277;-68
2022/09/01 00:51:57;;;;;;;3.33;2.50;;;16.70;99.90;;;;;;5011950;28;20452;-68
2022/09/01 00:54:29;;;;;;;3.60;2.27;;;16.70;99.90;;;;;;5017033;28;20200;-68
2022/09/01 00:56:58;;;;;;;3.33;2.50;;;16.70;99.90;;;;;;5008669;28;20633;-68
2022/09/01 00:59:26;;;;;;;3.67;2.63;;;16.70;99.90;;;;;;5013964;28;20195;-68
2022/09/01 01:01:54;;;;;;;4.63;2.90;;;16.60;99.90;;;;;;5015010;28;20227;-68
2022/09/01 01:04:21;;;;;;;4.07;2.60;;;16.60;99.90;;;;;;5021608;28;20195;-68
2022/09/01 01:06:57;;;;;;;2.60;2.40;;;16.60;99.90;;;;;;5014179;28;20208;-68
2022/09/01 01:09:26;;;;;;;4.03;2.23;;;16.60;99.90;;;;;;5012376;28;20207;-68
2022/09/01 01:11:58;;;;;;;3.07;2.10;;;16.70;99.90;;;;;;5012231;28;20343;-68
2022/09/01 01:14:28;;;;;;;3.13;2.40;;;16.70;99.90;;;;;;5016621;28;20200;-68
2022/09/01 01:16:55;;;;;;;2.70;2.10;;;16.80;99.90;;;;;;5014498;28;20578;-68
2022/09/01 01:25:22;;;;;;;2.80;2.10;;;17.00;99.90;;;;;;5019391;28;20200;-68
2022/09/01 01:27:49;;;;;;;3.13;2.30;;;17.20;99.90;;;;;;5013369;28;20199;-68
2022/09/01 01:30:19;;;;;;;2.90;2.27;;;17.20;99.90;;;;;;5017509;28;20192;-68
2022/09/01 01:32:46;;;;;;;2.57;1.87;;;17.20;99.90;;;;;;5020688;28;20219;-68
2022/09/01 01:35:15;;;;;;;2.53;1.90;;;17.30;99.90;;;;;;5015990;28;20683;-68
2022/09/01 01:37:45;;;;;;;2.83;1.97;;;17.30;99.90;;;;;;5013792;28;20223;-68
2022/09/01 01:40:14;;;;;;;2.23;2.00;;;17.40;99.90;;;;;;5014182;28;20606;-68
2022/09/01 01:42:44;;;;;;;3.17;2.03;;;17.40;99.90;;;;;;5012017;28;20692;-68
2022/09/01 01:45:19;;;;;;;4.60;2.50;;;17.40;99.90;;;;;;5017451;28;20202;-68
2022/09/01 01:47:52;;;;;;;2.33;2.13;;;17.40;99.90;;;;;;5017551;28;20198;-68
2022/09/01 01:50:34;;;;;;;2.00;1.80;;;17.40;99.90;;;;;;5013274;28;20287;-68
2022/09/01 01:53:03;;;;;;;3.07;2.13;;;17.50;99.90;;;;;;5014627;28;20216;-67
2022/09/01 01:55:38;;;;;;;3.63;2.40;;;17.50;99.90;;;;;;5015495;28;20196;-68
2022/09/01 01:58:06;;;;;;;3.10;2.30;;;17.50;99.90;;;;;;5018251;28;20657;-67
2022/09/01 02:00:33;;;;;;;2.57;2.10;;;17.40;99.90;;;;;;5017113;28;20253;-68
2022/09/01 02:03:00;;;;;;;4.23;2.37;;;17.30;99.90;;;;;;5015061;28;20220;-68
2022/09/01 02:05:31;;;;;;;2.33;2.00;;;17.20;99.90;;;;;;5015404;28;20208;-68
2022/09/01 02:08:04;;;;;;;2.60;1.90;;;17.10;99.90;;;;;;5017914;28;20200;-68
2022/09/01 02:10:35;;;;;;;3.03;2.20;;;17.00;99.90;;;;;;5016571;28;20724;-68
2022/09/01 02:13:06;;;;;;;3.07;2.00;;;16.90;99.90;;;;;;5015570;28;20235;-68
2022/09/01 02:15:42;;;;;;;2.53;2.20;;;16.80;99.90;;;;;;5016386;28;20653;-68
2022/09/01 02:18:13;;;;;;;2.27;2.00;;;16.90;99.90;;;;;;5029880;28;20200;-68
2022/09/01 02:20:40;;;;;;;2.40;2.20;;;16.80;99.90;;;;;;5014858;28;20195;-68
2022/09/01 02:23:09;;;;;;;3.53;2.10;;;16.70;99.90;;;;;;5016982;28;20216;-68
2022/09/01 02:25:43;;;;;;;2.40;2.10;;;16.70;99.90;;;;;;5020743;28;20258;-68
2022/09/01 02:28:33;;;;;;;3.00;2.33;;;16.60;99.90;;;;;;5014997;28;20192;-68
2022/09/01 02:31:01;;;;;;;2.43;2.23;;;16.60;99.90;;;;;;5013072;28;20192;-68
2022/09/01 02:33:29;;;;;;;4.47;2.10;;;16.60;99.90;;;;;;5015035;28;20242;-68
2022/09/01 02:35:59;;;;;;;2.77;2.20;;;16.60;99.90;;;;;;5022715;28;20220;-68
2022/09/01 02:38:28;;;;;;;2.87;2.30;;;16.50;99.90;;;;;;5016084;28;20488;-68
2022/09/01 02:40:57;;;;;;;2.63;1.90;;;16.50;99.90;;;;;;5018501;28;20188;-68
2022/09/01 02:43:27;;;;;;;3.17;2.30;;;16.60;99.90;;;;;;5020156;28;20226;-68
2022/09/01 02:45:58;;;;;;;2.20;2.00;;;16.60;99.90;;;;;;5017976;28;20200;-68
2022/09/01 02:48:39;;;;;;;2.67;2.10;;;16.60;99.90;;;;;;5017825;28;20769;-68
2022/09/01 02:51:13;;;;;;;3.27;2.50;;;16.60;99.90;;;;;;5013001;28;20223;-67
2022/09/01 02:53:41;;;;;;;2.47;2.20;;;16.50;99.90;;;;;;5012778;28;20608;-68
2022/09/01 02:56:14;;;;;;;2.83;2.50;;;16.50;99.90;;;;;;5016162;28;20252;-68
2022/09/01 02:58:45;;;;;;;2.23;2.03;;;16.50;99.90;;;;;;5025416;28;20195;-68
2022/09/01 03:01:15;;;;;;;2.67;2.30;;;16.60;99.90;;;;;;5021236;28;20196;-68
2022/09/01 03:03:42;;;;;;;2.50;2.10;;;16.60;99.90;;;;;;5016879;28;20618;-68
2022/09/01 03:06:11;;;;;;;2.40;2.20;;;16.60;99.90;;;;;;5014227;28;20197;-68
2022/09/01 03:08:38;;;;;;;2.30;2.10;;;16.50;99.90;;;;;;5017883;28;20302;-68
2022/09/01 03:11:09;;;;;;;2.43;2.23;;;16.40;99.90;;;;;;5019356;28;20202;-68
2022/09/01 03:13:39;;;;;;;3.17;2.33;;;16.40;99.90;;;;;;5016254;28;20203;-68
2022/09/01 03:16:08;;;;;;;6.57;2.53;;;16.40;99.90;;;;;;5015499;28;20589;-68
2022/09/01 03:18:35;;;;;;;2.80;2.40;;;16.40;99.90;;;;;;5024841;28;20432;-67
2022/09/01 03:21:02;;;;;;;2.90;2.30;;;16.40;99.90;;;;;;5018103;28;20667;-68
2022/09/01 03:23:30;;;;;;;3.67;2.37;;;16.40;99.90;;;;;;5022680;28;20215;-68
2022/09/01 03:25:57;;;;;;;2.53;2.27;;;16.40;99.90;;;;;;5014035;28;20193;-68
2022/09/01 03:28:24;;;;;;;3.47;2.60;;;16.40;99.90;;;;;;5019590;28;20196;-68
2022/09/01 03:30:53;;;;;;;2.50;2.27;;;16.40;99.90;;;;;;5016948;28;20400;-68
2022/09/01 03:33:22;;;;;;;2.90;2.33;;;16.50;99.90;;;;;;5013654;28;20220;-68
2022/09/01 03:35:50;;;;;;;4.40;2.40;;;16.40;99.90;;;;;;5016813;28;20200;-69
2022/09/01 03:38:20;;;;;;;3.37;2.20;;;16.40;99.90;;;;;;5016118;28;20203;-67
2022/09/01 03:40:51;;;;;;;2.97;2.40;;;16.30;99.90;;;;;;5018410;28;20199;-69
2022/09/01 03:43:22;;;;;;;5.40;2.10;;;16.40;99.90;;;;;;5015331;28;20278;-68
2022/09/01 03:45:49;;;;;;;2.30;2.10;;;16.40;99.90;;;;;;5019310;28;20199;-68
2022/09/01 03:48:16;;;;;;;2.50;2.30;;;16.30;99.90;;;;;;5016993;28;20188;-68
2022/09/01 03:50:45;;;;;;;4.13;2.33;;;16.40;99.90;;;;;;5018152;28;20200;-68
2022/09/01 03:53:15;;;;;;;3.20;2.60;;;16.40;99.90;;;;;;5016167;28;20565;-67
2022/09/01 03:55:44;;;;;;;4.07;2.27;;;16.40;99.90;;;;;;5017006;28;20192;-68
2022/09/01 03:58:13;;;;;;;2.70;2.40;;;16.30;99.90;;;;;;5016108;28;20220;-68
2022/09/01 04:00:42;;;;;;;3.23;2.60;;;16.30;99.90;;;;;;5017132;28;20231;-68
2022/09/01 04:03:20;;;;;;;3.13;2.43;;;16.30;99.90;;;;;;5018136;28;20227;-68
2022/09/01 04:05:54;;;;;;;3.57;2.50;;;16.30;99.90;;;;;;5010427;28;20692;-67
2022/09/01 04:08:27;;;;;;;2.63;2.27;;;16.20;99.90;;;;;;5009891;28;20211;-68
2022/09/01 04:11:01;;;;;;;2.67;2.30;;;16.00;99.90;;;;;;5019125;28;20196;-68
2022/09/01 04:13:32;;;;;;;3.13;2.57;;;15.90;99.90;;;;;;5011798;28;20294;-67
2022/09/01 04:15:59;;;;;;;3.63;2.57;;;15.70;99.90;;;;;;5015739;28;20215;-68
2022/09/01 04:18:26;;;;;;;6.40;2.80;;;15.70;99.90;;;;;;5020548;28;20307;-68
2022/09/01 04:20:58;;;;;;;3.23;2.63;;;15.70;99.90;;;;;;5015617;28;20204;-68
2022/09/01 04:23:30;;;;;;;3.87;2.80;;;15.60;99.90;;;;;;5014938;28;20216;-68
2022/09/01 04:26:11;;;;;;;3.10;2.80;;;15.50;99.90;;;;;;5011720;28;20193;-68
2022/09/01 04:28:44;;;;;;;3.10;2.57;;;15.40;99.90;;;;;;5018184;28;20218;-68
2022/09/01 04:31:19;;;;;;;3.00;2.70;;;15.40;99.90;;;;;;5021829;28;20691;-68
2022/09/01 04:33:48;;;;;;;3.67;2.83;;;15.30;99.90;;;;;;5017385;28;20199;-68
2022/09/01 04:36:21;;;;;;;4.03;3.40;;;15.30;99.90;;;;;;5014520;28;20227;-68
2022/09/01 04:38:53;;;;;;;3.47;2.90;;;15.30;99.90;;;;;;5017708;28;20192;-67
2022/09/01 04:41:21;;;;;;;3.90;2.97;;;15.30;99.90;;;;;;5018283;28;20192;-67
2022/09/01 04:43:50;;;;;;;3.30;2.57;;;15.20;99.90;;;;;;5017238;28;20192;-67
2022/09/01 04:46:19;;;;;;;3.10;2.47;;;15.20;99.90;;;;;;5018269;28;20617;-68
2022/09/01 04:48:47;;;;;;;3.40;3.10;;;15.30;99.90;;;;;;5013392;28;20188;-67
2022/09/01 04:51:15;;;;;;;3.20;2.63;;;15.30;99.90;;;;;;5012632;28;20242;-68
2022/09/01 04:53:47;;;;;;;3.23;2.93;;;15.30;99.90;;;;;;5018652;28;20230;-68
2022/09/01 04:56:18;;;;;;;3.10;2.80;;;15.30;99.90;;;;;;5021414;28;20656;-68
2022/09/01 04:58:46;;;;;;;3.43;3.00;;;15.30;99.90;;;;;;5016663;28;20196;-68
2022/09/01 05:01:16;;;;;;;3.70;3.20;;;15.30;99.90;;;;;;5013711;28;20192;-67
2022/09/01 05:03:44;;;;;;;2.90;2.60;;;15.30;99.90;;;;;;5018611;28;20195;-68
2022/09/01 05:06:16;;;;;;;3.37;2.87;;;15.20;99.90;;;;;;5014636;28;20199;-68
2022/09/01 05:08:45;;;;;;;3.40;3.10;;;15.20;99.90;;;;;;5014407;28;20204;-68
2022/09/01 05:11:15;;;;;;;3.40;2.87;;;15.20;99.90;;;;;;5010105;28;21028;-68
2022/09/01 05:13:44;;;;;;;4.17;2.90;;;15.20;99.90;;;;;;5015190;28;20204;-67
2022/09/01 05:16:14;;;;;;;3.83;2.77;;;15.20;99.90;;;;;;5016053;28;20233;-68
2022/09/01 05:18:46;;;;;;;3.93;2.60;;;15.30;99.90;;;;;;5016114;28;20241;-68
2022/09/01 05:21:20;;;;;;;3.80;3.00;;;15.30;99.90;;;;;;5016234;28;20551;-68
2022/09/01 05:23:49;;;;;;;3.27;2.97;;;15.30;99.90;;;;;;5018813;28;20204;-68
2022/09/01 05:26:19;;;;;;;4.90;3.30;;;15.40;99.90;;;;;;5020927;28;20200;-68
2022/09/01 05:28:48;;;;;;;4.50;2.97;;;15.60;99.90;;;;;;5017099;28;20219;-68
2022/09/01 05:31:18;;;;;;;3.00;2.70;;;15.70;99.90;;;;;;5019194;28;20699;-68
2022/09/01 05:33:48;;;;;;;3.10;2.80;;;15.70;99.90;;;;;;5017760;28;20258;-68
2022/09/01 05:36:18;;;;;;;3.67;2.97;;;15.80;99.90;;;;;;5011552;28;20280;-67
2022/09/01 05:38:46;;;;;;;3.37;3.07;;;15.90;99.90;;;;;;5016929;28;20211;-66
2022/09/01 05:41:14;;;;;;;6.03;3.30;;;16.00;99.90;;;;;;5017248;28;20196;-68
2022/09/01 05:43:47;;;;;;;3.23;2.93;;;16.10;99.90;;;;;;5025327;28;20200;-68
2022/09/01 05:46:17;;;;;;;5.57;3.37;;;16.20;99.90;;;;;;5022551;28;20289;-68
2022/09/01 05:48:48;;;;;;;3.17;2.77;;;16.40;99.90;;;;;;5025206;28;20245;-67
2022/09/01 05:51:18;;;;;;;3.67;2.90;;;16.50;99.90;;;;;;5017691;28;20277;-67
2022/09/01 05:54:06;;;;;;;4.03;2.77;;;16.70;99.90;;;;;;5014288;28;20208;-67
2022/09/01 05:56:39;;;;;;;4.53;3.00;;;17.00;99.90;;;;;;5021901;28;20235;-67
2022/09/01 05:59:11;;;;;;;3.77;3.03;;;17.20;99.90;;;;;;5025410;28;20195;-68
2022/09/01 06:01:54;;;;;;;3.13;2.40;;;17.60;99.90;;;;;;5025569;28;20310;-68
2022/09/01 06:04:23;;;;;;;4.23;2.77;;;17.70;99.90;;;;;;5034270;28;20197;-67
2022/09/01 06:06:52;;;;;;;4.50;3.00;;;18.00;99.90;;;;;;5017792;28;20195;-68
2022/09/01 06:09:42;;;;;;;4.57;3.10;;;18.10;99.90;;;;;;5025086;28;20519;-67
2022/09/01 06:12:22;;;;;;;3.73;2.40;;;18.30;99.90;;;;;;5020239;28;20220;-67
2022/09/01 06:14:52;;;;;;;2.47;2.27;;;18.40;99.90;;;;;;5018910;28;20227;-68
2022/09/01 06:17:23;;;;;;;4.37;2.40;;;18.60;99.90;;;;;;5013186;28;20230;-68
2022/09/01 06:19:51;;;;;;;4.60;2.50;;;18.70;99.90;;;;;;5029651;28;20195;-68
2022/09/01 06:22:19;;;;;;;2.47;2.13;;;18.90;99.90;;;;;;5025221;28;20591;-68
2022/09/01 06:24:46;;;;;;;2.73;2.20;;;19.00;99.90;;;;;;5019478;28;20390;-67
2022/09/01 06:27:21;;;;;;;3.20;2.67;;;19.00;99.90;;;;;;5027106;28;20209;-67
2022/09/01 06:29:55;;;;;;;2.47;2.27;;;19.10;99.90;;;;;;5026058;28;20208;-67
2022/09/01 06:32:24;;;;;;;6.13;2.60;;;19.10;99.90;;;;;;5017155;28;20334;-68
2022/09/01 06:34:51;;;;;;;5.67;2.90;;;19.20;99.90;;;;;;5021777;28;20297;-68
2022/09/01 06:37:21;;;;;;;4.40;2.63;;;19.30;99.90;;;;;;5024475;28;20216;-68
2022/09/01 06:39:49;;;;;;;5.27;2.43;;;19.30;99.90;;;;;;5028622;28;20867;-68
2022/09/01 06:42:18;;;;;;;3.20;2.27;;;19.50;99.90;;;;;;5016170;28;20223;-67
2022/09/01 06:44:44;;;;;;;2.20;2.00;;;19.60;99.90;;;;;;5018179;28;20189;-67
2022/09/01 06:47:12;;;;;;;3.37;2.30;;;19.70;99.90;;;;;;5015931;28;20661;-67
2022/09/01 06:49:39;;;;;;;3.30;2.70;;;19.70;99.90;;;;;;5022011;28;20208;-66
2022/09/01 06:52:07;;;;;;;3.87;2.20;;;19.80;99.90;;;;;;5017861;28;20712;-67
2022/09/01 06:54:37;;;;;;;3.03;2.00;;;19.80;99.90;;;;;;5018206;28;20204;-66
2022/09/01 06:57:04;;;;;;;3.73;2.50;;;20.00;99.90;;;;;;5014981;28;20323;-67
2022/09/01 06:59:52;;;;;;;2.90;2.10;;;20.10;99.90;;;;;;5011941;28;20192;-66
2022/09/01 07:02:20;;;;;;;2.80;2.20;;;20.30;99.90;;;;;;5014853;28;20526;-67
2022/09/01 07:04:53;;;;;;;3.10;2.30;;;20.30;99.90;;;;;;5017578;28;20282;-70
2022/09/01 07:07:21;;;;;;;2.43;2.13;;;20.20;99.90;;;;;;5017669;28;20211;-69
2022/09/01 07:10:08;;;;;;;3.57;2.30;;;20.30;99.90;;;;;;5014436;28;20513;-66
2022/09/01 07:12:57;;;;;;;2.67;2.10;;;20.40;99.90;;;;;;5015751;28;20223;-68
2022/09/01 07:15:32;;;;;;;2.57;2.27;;;20.40;99.90;;;;;;5014255;28;20226;-68
2022/09/01 07:18:21;;;;;;;2.83;2.00;;;20.50;99.90;;;;;;5013213;28;20223;-68
2022/09/01 07:20:48;;;;;;;5.18;2.38;;;20.60;99.90;;;;;;5013420;28;20286;-66
2022/09/01 07:23:37;;;;;;;2.55;2.10;;;20.70;99.90;;;;;;5019681;28;20265;-68
2022/09/01 07:26:24;;;;;;;2.47;1.90;;;20.80;99.90;;;;;;5017361;28;20249;-68
2022/09/01 07:28:52;;;;;;;4.00;2.42;;;21.00;99.90;;;;;;5015226;28;20494;-68
2022/09/01 07:31:35;;;;;;;4.85;2.10;;;21.00;99.90;;;;;;5013682;28;20261;-68
2022/09/01 07:34:21;;;;;;;3.50;2.10;;;21.20;99.90;;;;;;5015926;28;20746;-67
2022/09/01 07:37:09;;;;;;;3.80;2.10;;;21.40;99.90;;;;;;5018823;28;20262;-67
2022/09/01 07:39:57;;;;;;;2.67;1.95;;;21.40;99.90;;;;;;5014945;28;20203;-67
2022/09/01 07:42:48;;;;;;;4.70;2.40;;;21.50;99.90;;;;;;5015035;28;20443;-67
2022/09/01 07:45:36;;;;;;;4.45;2.50;;;21.50;99.90;;;;;;5017730;28;20768;-68
2022/09/01 07:48:17;;;;;;;3.92;2.45;;;21.50;99.90;;;;;;5019562;28;20199;-68
2022/09/01 07:51:02;;;;;;;4.80;2.97;;;21.40;99.90;;;;;;5011577;28;20196;-67
2022/09/01 07:53:49;;;;;;;2.35;2.10;;;21.40;99.90;;;;;;5008163;28;20204;-67
2022/09/01 07:56:19;;;;;;;2.97;2.20;;;21.30;99.90;;;;;;5016895;28;20200;-67
2022/09/01 07:58:47;;;;;;;5.97;2.47;;;21.30;99.90;;;;;;5019887;28;20216;-67
2022/09/01 08:01:20;;;;;;;3.95;2.53;;;21.30;99.90;;;;;;5018062;28;20196;-67
2022/09/01 08:03:52;;;;;;;2.60;2.20;;;21.10;99.90;;;;;;5017682;28;20231;-67
2022/09/01 08:06:21;;;;;;;3.10;2.70;;;21.00;99.90;;;;;;5018298;28;20196;-67
2022/09/01 08:08:49;;;;;;;3.42;2.60;;;21.00;99.90;;;;;;5018172;28;20271;-67
2022/09/01 08:11:23;;;;;;;6.03;2.83;;;21.10;99.90;;;;;;5021851;28;20218;-67
2022/09/01 08:14:10;;;;;;;4.63;2.47;;;21.20;99.90;;;;;;5022496;28;20540;-67
2022/09/01 08:16:37;;;;;;;4.78;2.30;;;21.30;99.90;;;;;;5020100;28;20208;-67
2022/09/01 08:19:17;;;;;;;2.83;2.20;;;21.40;99.90;;;;;;5005058;28;20246;-67
2022/09/01 08:21:44;;;;;;;4.03;2.40;;;21.40;99.90;;;;;;5011731;28;20214;-67
2022/09/01 08:24:10;;;;;;;2.88;2.33;;;21.40;99.90;;;;;;5015915;28;20203;-68
2022/09/01 08:26:37;;;;;;;5.97;2.70;;;21.50;99.90;;;;;;5015538;28;20664;-67
2022/09/01 08:29:04;;;;;;;4.45;2.40;;;21.60;99.90;;;;;;5016745;28;20203;-67
2022/09/01 08:31:31;;;;;;;2.63;2.28;;;21.60;99.90;;;;;;5010628;28;20236;-67
2022/09/01 08:33:58;;;;;;;3.90;2.33;;;21.60;99.90;;;;;;5013740;28;20231;-67
2022/09/01 08:36:25;;;;;;;2.95;2.30;;;21.80;99.90;;;;;;5014534;28;20200;-67
2022/09/01 08:38:52;;;;;;;4.53;2.40;;;22.00;99.90;;;;;;5013246;28;20220;-67
2022/09/01 08:41:42;;;;;;;4.88;2.67;;;22.00;99.90;;;;;;5017432;28;20206;-67
2022/09/01 08:44:19;;;;;;;3.08;2.70;;;22.30;99.90;;;;;;5023130;28;20288;-67
2022/09/01 08:46:49;;;;;;;6.57;3.58;;;22.50;99.90;;;;;;5020168;28;20605;-68
2022/09/01 08:49:20;;;;;;;6.70;3.00;;;22.50;99.90;;;;;;5021173;28;20233;-67
2022/09/01 08:52:16;;;;;;;5.88;3.20;;;22.80;99.90;;;;;;5016927;28;20230;-69
2022/09/01 08:55:04;;;;;;;5.13;2.72;;;23.20;99.90;;;;;;5011191;28;20203;-68
2022/09/01 08:57:37;;;;;;;7.03;2.75;;;23.30;99.90;;;;;;5014483;28;20219;-70
2022/09/01 09:00:11;;;;;;;4.03;2.50;;;23.50;99.90;;;;;;5016599;28;20552;-68
2022/09/01 09:02:56;;;;;;;2.97;2.50;;;23.70;99.90;;;;;;5015326;28;20250;-68
2022/09/01 09:05:33;;;;;;;3.88;2.70;;;23.70;99.90;;;;;;5018881;28;20227;-68
2022/09/01 09:08:28;;;;;;;4.05;2.60;;;23.80;99.90;;;;;;5022938;28;20203;-68
2022/09/01 09:11:00;;;;;;;4.13;2.58;;;23.60;99.90;;;;;;5017951;28;20207;-68
2022/09/01 09:13:53;;;;;;;5.53;2.50;;;23.80;99.90;;;;;;5016172;28;20212;-69
2022/09/01 09:16:41;;;;;;;4.03;2.13;;;23.90;99.90;;;;;;5017170;28;20200;-69
2022/09/01 09:19:25;;;;;;;5.22;2.63;;;23.80;99.90;;;;;;5018037;28;20230;-69
2022/09/01 09:21:54;;;;;;;8.02;2.17;;;23.70;99.90;;;;;;5020502;28;20576;-68
2022/09/01 09:24:59;;;;;;;13.60;2.70;;;23.80;99.90;;;;;;5018018;28;20192;-67
2022/09/01 09:27:32;;;;;;;9.70;2.80;;;23.80;99.90;;;;;;4991123;28;20641;-68
2022/09/01 09:30:03;;;;;;;5.88;2.38;;;23.60;99.90;;;;;;4999894;28;20576;-66
2022/09/01 09:32:55;;;;;;;6.30;2.45;;;23.20;99.90;;;;;;5008311;28;20216;-68
2022/09/01 09:35:44;;;;;;;2.70;2.50;;;23.40;99.90;;;;;;5019747;28;20572;-67
2022/09/01 09:38:32;;;;;;;2.92;2.35;;;23.50;99.90;;;;;;5023515;28;20220;-69
2022/09/01 09:41:20;;;;;;;7.18;2.63;;;23.40;99.90;;;;;;5021781;28;20648;-70
2022/09/01 09:44:21;;;;;;;2.85;2.40;;;23.30;99.90;;;;;;5018856;28;20306;-69
2022/09/01 09:46:48;;;;;;;2.97;2.38;;;23.30;99.90;;;;;;5009680;28;20246;-68
2022/09/01 09:49:23;;;;;;;3.58;2.60;;;23.40;99.90;;;;;;5014516;28;20672;-68
2022/09/01 09:52:14;;;;;;;7.65;2.90;;;23.50;99.90;;;;;;5016302;28;20306;-69
2022/09/01 09:55:04;;;;;;;4.50;2.10;;;23.50;99.90;;;;;;5014534;28;20204;-67
2022/09/01 09:57:37;;;;;;;3.97;2.50;;;23.60;99.90;;;;;;5022423;28;20559;-68
2022/09/01 10:00:17;;;;;;;3.97;2.50;;;23.70;99.90;;;;;;5016886;28;20216;-68
2022/09/01 10:02:50;;;;;;;2.97;2.53;;;23.80;99.90;;;;;;5028069;28;20292;-69
2022/09/01 10:05:28;;;;;;;3.85;2.50;;;23.50;99.90;;;;;;5021881;28;20195;-71
2022/09/01 10:07:57;;;;;;;5.75;2.50;;;23.10;99.90;;;;;;5037083;28;20216;-70
2022/09/01 10:10:48;;;;;;;5.68;2.60;;;23.10;99.90;;;;;;5016874;28;20195;-67
2022/09/01 10:13:27;;;;;;;4.05;2.70;;;23.20;99.90;;;;;;5015208;28;20220;-69
2022/09/01 10:16:00;;;;;;;6.43;2.63;;;23.10;99.90;;;;;;5018682;28;20216;-68
2022/09/01 10:18:44;;;;;;;4.95;2.88;;;23.30;99.90;;;;;;5017884;28;20228;-68
2022/09/01 10:21:25;;;;;;;3.85;2.75;;;23.60;99.90;;;;;;5019470;28;20580;-68
2022/09/01 10:23:52;;;;;;;4.95;2.58;;;23.60;99.90;;;;;;5021373;28;20191;-68
2022/09/01 10:26:37;;;;;;;3.28;2.40;;;23.70;99.90;;;;;;5017739;28;20291;-68
2022/09/01 10:29:24;;;;;;;4.05;2.60;;;23.80;99.90;;;;;;5012965;28;20203;-68
2022/09/01 10:31:53;;;;;;;4.80;2.50;;;23.90;99.90;;;;;;5019321;28;20589;-69
2022/09/01 10:34:41;;;;;;;5.22;2.97;;;24.00;99.90;;;;;;5018510;28;20204;-69
2022/09/01 10:37:09;;;;;;;3.35;2.65;;;24.10;99.90;;;;;;5019652;28;20567;-69
2022/09/01 10:40:10;;;;;;;5.30;3.03;;;24.00;99.90;;;;;;5019654;28;21581;-69
2022/09/01 10:42:41;;;;;;;3.97;2.42;;;24.00;99.90;;;;;;5023678;28;20219;-69
2022/09/01 10:45:38;;;;;;;4.45;2.22;;;24.10;99.90;;;;;;5012736;28;20204;-69
2022/09/01 10:48:21;;;;;;;9.23;2.50;;;24.30;99.90;;;;;;5016133;28;20747;-69
2022/09/01 10:51:13;;;;;;;3.72;2.50;;;24.30;99.90;;;;;;5012536;28;20260;-68
2022/09/01 10:53:52;;;;;;;5.97;2.88;;;24.20;99.90;;;;;;5021425;28;20202;-69
2022/09/01 10:56:35;;;;;;;4.15;2.92;;;24.40;99.90;;;;;;5010905;28;20191;-68
2022/09/01 10:59:20;;;;;;;6.82;2.63;;;24.20;99.90;;;;;;5017187;28;20274;-68
2022/09/01 11:02:07;;;;;;;5.50;2.60;;;24.30;99.90;;;;;;5021246;28;20950;-68
2022/09/01 11:05:12;;;;;;;6.78;2.40;;;24.20;99.90;;;;;;5017542;28;20288;-68
2022/09/01 11:07:39;;;;;;;3.47;2.38;;;24.20;99.90;;;;;;5021879;28;20583;-68
2022/09/01 11:10:37;;;;;;;2.85;2.35;;;24.40;99.90;;;;;;5016954;28;20203;-69
2022/09/01 11:13:20;;;;;;;5.07;2.55;;;24.50;99.90;;;;;;5018508;28;20220;-66
2022/09/01 11:15:48;;;;;;;5.70;2.38;;;24.60;99.90;;;;;;5022532;28;20199;-66
2022/09/01 11:18:24;;;;;;;5.53;2.47;;;24.50;99.90;;;;;;5024294;28;20269;-66
2022/09/01 11:20:54;;;;;;;4.72;2.60;;;24.50;99.90;;;;;;5022360;28;20195;-66
2022/09/01 11:23:29;;;;;;;5.55;2.30;;;24.60;99.90;;;;;;5019074;28;20220;-66
2022/09/01 11:26:01;;;;;;;6.10;2.75;;;24.70;99.90;;;;;;5020672;28;20698;-66
2022/09/01 11:28:48;;;;;;;4.32;2.45;;;24.80;99.90;;;;;;5019717;28;20616;-66
2022/09/01 11:31:36;;;;;;;4.72;2.53;;;25.10;99.90;;;;;;5022545;28;20305;-66
2022/09/01 11:34:18;;;;;;;3.53;2.47;;;25.20;99.90;;;;;;5018720;28;20731;-66
2022/09/01 11:36:51;;;;;;;3.40;2.47;;;25.50;99.90;;;;;;5021784;28;20195;-66
2022/09/01 11:39:18;;;;;;;2.47;2.13;;;25.50;99.90;;;;;;5015334;28;20220;-66
2022/09/01 11:42:07;;;;;;;3.42;2.30;;;25.30;99.90;;;;;;5013588;28;20212;-66
2022/09/01 11:44:56;;;;;;;5.55;2.13;;;25.20;99.90;;;;;;5023783;28;20196;-67
2022/09/01 11:47:27;;;;;;;5.13;2.45;;;25.30;99.90;;;;;;5022036;28;20195;-67
2022/09/01 11:49:57;;;;;;;5.95;2.20;;;25.50;99.90;;;;;;5019116;28;20196;-66
2022/09/01 11:52:28;;;;;;;4.10;2.67;;;25.40;99.90;;;;;;5022171;28;20226;-66
2022/09/01 11:54:57;;;;;;;3.25;2.50;;;25.30;99.90;;;;;;5015496;28;20318;-67
2022/09/01 11:57:33;;;;;;;2.22;2.03;;;25.30;99.90;;;;;;5020141;28;20204;-69
2022/09/01 12:00:12;;;;;;;2.58;2.30;;;25.00;99.90;;;;;;5016440;28;20235;-69
2022/09/01 12:02:50;;;;;;;3.50;2.90;;;25.00;99.90;;;;;;5023072;28;20238;-70
2022/09/01 12:05:34;;;;;;;3.20;2.53;;;24.80;99.90;;;;;;5017668;28;20232;-70
2022/09/01 12:08:12;;;;;;;5.07;2.28;;;24.90;99.90;;;;;;5021379;28;20203;-71
2022/09/01 12:10:43;;;;;;;5.90;2.45;;;25.20;99.90;;;;;;5034087;28;20254;-71
2022/09/01 12:13:17;;;;;;;2.55;2.33;;;25.60;99.90;;;;;;5018998;28;20219;-70
2022/09/01 12:15:55;;;;;;;3.03;2.50;;;26.00;99.90;;;;;;5017017;28;20290;-69
2022/09/01 12:18:51;;;;;;;4.97;2.30;;;26.20;99.90;;;;;;5020974;28;20235;-69
2022/09/01 12:21:41;;;;;;;3.45;2.33;;;26.00;99.90;;;;;;5020967;28;20195;-69
2022/09/01 12:24:19;;;;;;;5.57;2.10;;;25.80;99.90;;;;;;5018709;28;20188;-68
2022/09/01 12:26:50;;;;;;;3.10;2.50;;;26.00;99.90;;;;;;5017515;28;20192;-70
2022/09/01 12:29:18;;;;;;;4.30;2.22;;;25.90;99.90;;;;;;5017437;28;20215;-69
2022/09/01 12:31:49;;;;;;;6.00;2.03;;;25.80;99.90;;;;;;5019186;28;20219;-68
2022/09/01 12:34:24;;;;;;;2.60;2.40;;;25.90;99.90;;;;;;5023262;28;20225;-66
2022/09/01 12:37:06;;;;;;;2.20;2.00;;;26.00;99.90;;;;;;5009084;28;20195;-68
2022/09/01 12:39:38;;;;;;;4.20;2.15;;;26.00;99.90;;;;;;5015133;28;20574;-69
2022/09/01 12:42:07;;;;;;;2.15;1.95;;;26.40;99.90;;;;;;5013915;28;20219;-69
2022/09/01 12:44:45;;;;;;;2.40;2.20;;;26.90;99.90;;;;;;5011548;28;20775;-70
2022/09/01 12:47:32;;;;;;;3.90;2.38;;;27.50;99.90;;;;;;5021044;28;20586;-69
2022/09/01 12:50:01;;;;;;;4.35;2.40;;;28.00;99.90;;;;;;5016125;28;20203;-68
2022/09/01 12:52:31;;;;;;;4.07;2.20;;;27.90;99.90;;;;;;5015178;28;20231;-69
2022/09/01 12:54:57;;;;;;;3.97;2.42;;;27.80;99.90;;;;;;5017552;28;20673;-67
2022/09/01 12:57:33;;;;;;;4.07;2.28;;;27.50;99.90;;;;;;5014432;28;20207;-69
2022/09/01 13:00:14;;;;;;;4.13;2.50;;;27.50;99.90;;;;;;5015251;28;20219;-69
2022/09/01 13:02:51;;;;;;;2.45;2.25;;;27.80;99.90;;;;;;5013018;28;20236;-69
2022/09/01 13:05:29;;;;;;;3.13;2.42;;;28.00;99.90;;;;;;5021021;28;20219;-68
2022/09/01 13:08:20;;;;;;;3.17;2.42;;;27.70;99.90;;;;;;5012111;28;20196;-67
2022/09/01 13:10:52;;;;;;;2.85;2.47;;;27.80;99.90;;;;;;5018843;28;20198;-69
2022/09/01 13:13:22;;;;;;;3.83;2.30;;;28.20;99.90;;;;;;5016094;28;20215;-69
2022/09/01 13:15:52;;;;;;;5.72;2.20;;;28.50;99.90;;;;;;5023147;28;20195;-69
2022/09/01 13:18:21;;;;;;;3.10;2.47;;;28.90;99.90;;;;;;5011934;28;20481;-69
2022/09/01 13:20:49;;;;;;;4.13;2.42;;;29.00;99.90;;;;;;5015134;28;20295;-70
2022/09/01 13:23:17;;;;;;;2.45;2.13;;;29.10;99.90;;;;;;5017951;28;20212;-68
2022/09/01 13:25:45;;;;;;;2.53;2.30;;;29.40;99.60;;;;;;5014670;28;20269;-69
2022/09/01 13:28:13;;;;;;;3.83;2.20;;;29.00;99.90;;;;;;5019705;28;20287;-68
2022/09/01 13:30:41;;;;;;;3.33;2.10;;;28.90;99.80;;;;;;5012536;28;20230;-69